Time;durP1;ratioP1;P1;durP2;ratioP2;P2;SDS_P1;SDS_P2;PMS_P1;PMS_P2;Temp;Humidity;BMP_temperature;BMP_pressure;BME280_temperature;BME280_humidity;BME280_pressure;Samples;Min_cycle;Max_cycle;Signal;HPM_P1;HPM_P2
2022/07/06 00:02:14;;;;;;;5.15;2.75;;;;;;;12.88;67.10;102373.31;4987786;28;20041;-81
2022/07/06 00:04:39;;;;;;;5.18;2.40;;;;;;;12.83;67.07;102368.13;4972412;28;20031;-81
2022/07/06 00:07:04;;;;;;;4.03;2.60;;;;;;;12.81;66.86;102369.97;4969933;28;20505;-81
2022/07/06 00:09:30;;;;;;;3.13;2.20;;;;;;;12.80;67.04;102370.91;4965881;28;20034;-81
2022/07/06 00:11:55;;;;;;;5.53;2.80;;;;;;;12.74;67.61;102379.13;4967826;28;20711;-81
2022/07/06 00:14:21;;;;;;;4.80;2.58;;;;;;;12.73;67.88;102380.06;4967358;28;20038;-81
2022/07/06 00:16:46;;;;;;;6.63;2.90;;;;;;;12.69;67.68;102373.06;4967077;28;20396;-81
2022/07/06 00:19:12;;;;;;;5.00;2.67;;;;;;;12.64;68.16;102369.69;4967741;28;20033;-81
2022/07/06 00:21:37;;;;;;;5.72;2.67;;;;;;;12.57;68.33;102371.69;4968862;28;20482;-81
2022/07/06 00:24:03;;;;;;;5.88;3.00;;;;;;;12.63;68.28;102381.31;4968068;28;20027;-81
2022/07/06 00:26:28;;;;;;;4.85;3.33;;;;;;;12.62;68.46;102382.22;4968061;28;20043;-81
2022/07/06 00:28:54;;;;;;;5.75;3.33;;;;;;;12.58;68.66;102375.25;4968349;28;20038;-81
2022/07/06 00:31:19;;;;;;;4.18;2.90;;;;;;;12.55;68.82;102375.38;4967978;28;20027;-81
2022/07/06 00:33:44;;;;;;;5.22;3.25;;;;;;;12.60;68.46;102381.41;4970674;28;20110;-81
2022/07/06 00:36:10;;;;;;;4.78;3.10;;;;;;;12.61;68.66;102386.69;4969515;28;20408;-81
2022/07/06 00:38:35;;;;;;;4.85;3.20;;;;;;;12.53;68.72;102377.22;4967079;28;20034;-81
2022/07/06 00:41:00;;;;;;;5.20;3.00;;;;;;;12.56;68.92;102385.13;4967457;28;20361;-81
2022/07/06 00:43:26;;;;;;;5.80;3.30;;;;;;;12.54;69.22;102386.97;4967964;28;20031;-81
2022/07/06 00:45:51;;;;;;;6.72;3.53;;;;;;;12.49;69.10;102375.56;4967584;28;20038;-81
2022/07/06 00:48:16;;;;;;;4.82;3.38;;;;;;;12.47;69.44;102386.31;4963682;28;20419;-81
2022/07/06 00:50:42;;;;;;;4.22;3.13;;;;;;;12.43;69.54;102382.88;4965867;28;20045;-81
2022/07/06 00:53:08;;;;;;;6.18;3.20;;;;;;;12.45;69.56;102386.34;4969306;28;20086;-81
2022/07/06 00:55:36;;;;;;;6.13;3.25;;;;;;;12.44;69.45;102381.94;4968622;28;20575;-81
2022/07/06 00:58:03;;;;;;;5.38;3.30;;;;;;;12.44;69.48;102387.28;4967029;28;20110;-81
2022/07/06 01:00:29;;;;;;;6.10;2.97;;;;;;;12.42;70.00;102382.94;4964772;28;20535;-81
2022/07/06 01:02:55;;;;;;;8.07;3.33;;;;;;;12.31;70.20;102380.63;4951428;28;20027;-81
2022/07/06 01:05:21;;;;;;;3.97;3.13;;;;;;;12.32;70.53;102382.34;4965185;28;20038;-81
2022/07/06 01:07:48;;;;;;;7.80;3.80;;;;;;;12.31;70.43;102380.63;4967309;28;20038;-81
2022/07/06 01:10:17;;;;;;;5.63;2.90;;;;;;;12.25;70.74;102377.25;4968136;28;20264;-81
2022/07/06 01:12:44;;;;;;;8.73;3.25;;;;;;;12.22;70.78;102383.59;4966090;28;20124;-81
2022/07/06 01:15:12;;;;;;;5.85;3.42;;;;;;;12.17;71.02;102383.75;4969535;28;20135;-81
2022/07/06 01:17:42;;;;;;;5.43;3.13;;;;;;;12.14;71.24;102377.63;4959779;28;20034;-81
2022/07/06 01:20:16;;;;;;;4.50;3.25;;;;;;;12.13;70.87;102376.78;4966680;28;20026;-81
2022/07/06 01:22:42;;;;;;;5.07;3.55;;;;;;;12.11;71.47;102367.94;4967632;28;20061;-81
2022/07/06 01:25:08;;;;;;;5.32;3.38;;;;;;;12.11;71.61;102372.41;4966032;28;20047;-81
2022/07/06 01:27:38;;;;;;;4.65;3.00;;;;;;;12.03;71.79;102369.97;4967741;28;20428;-81
2022/07/06 01:30:09;;;;;;;6.30;3.83;;;;;;;12.03;71.87;102375.31;4968394;28;20129;-81
2022/07/06 01:32:35;;;;;;;5.53;3.38;;;;;;;12.04;71.86;102376.19;4968652;28;20077;-81
2022/07/06 01:35:01;;;;;;;4.18;3.33;;;;;;;12.01;72.01;102376.31;4965460;28;20046;-81
2022/07/06 01:37:26;;;;;;;5.43;3.60;;;;;;;11.97;72.06;102372.84;4967601;28;20114;-81
2022/07/06 01:39:52;;;;;;;4.35;3.38;;;;;;;11.94;71.84;102375.63;4967105;28;20019;-81
2022/07/06 01:42:17;;;;;;;6.38;3.35;;;;;;;11.93;72.12;102377.41;4967900;28;20027;-82
2022/07/06 01:44:44;;;;;;;5.05;3.50;;;;;;;11.91;72.37;102387.28;4965560;28;20031;-81
2022/07/06 01:47:10;;;;;;;5.10;3.53;;;;;;;11.88;72.67;102376.69;4965621;28;20489;-81
2022/07/06 01:49:35;;;;;;;5.97;3.45;;;;;;;11.84;72.63;102371.50;4966450;28;20039;-81
2022/07/06 01:52:01;;;;;;;5.28;3.78;;;;;;;11.87;72.68;102376.72;4967934;28;20523;-81
2022/07/06 01:54:26;;;;;;;5.68;3.65;;;;;;;11.79;73.13;102362.72;4966824;28;20043;-81
2022/07/06 01:56:51;;;;;;;5.10;3.65;;;;;;;11.80;72.63;102370.69;4967820;28;20034;-81
2022/07/06 01:59:17;;;;;;;4.88;3.70;;;;;;;11.85;72.62;102367.91;4966845;28;20053;-81
2022/07/06 02:01:42;;;;;;;6.43;4.40;;;;;;;11.80;72.85;102368.03;4966284;28;20038;-81
2022/07/06 02:04:07;;;;;;;4.25;3.45;;;;;;;11.77;72.90;102365.44;4967127;28;20373;-81
2022/07/06 02:06:32;;;;;;;5.72;4.05;;;;;;;11.75;72.80;102361.97;4971349;28;20037;-81
2022/07/06 02:08:58;;;;;;;7.85;4.03;;;;;;;11.77;72.90;102370.78;4962163;28;20034;-81
2022/07/06 02:11:23;;;;;;;5.18;4.05;;;;;;;11.69;73.39;102371.00;4965549;28;20289;-81
2022/07/06 02:13:48;;;;;;;7.50;4.20;;;;;;;11.65;73.75;102369.38;4965261;28;20030;-81
2022/07/06 02:16:13;;;;;;;4.95;3.72;;;;;;;11.60;73.78;102375.78;4959199;28;20494;-81
2022/07/06 02:18:39;;;;;;;6.05;4.20;;;;;;;11.57;73.73;102366.06;4978575;28;20031;-81
2022/07/06 02:21:05;;;;;;;4.88;4.00;;;;;;;11.54;74.06;102376.84;4964304;28;20026;-81
2022/07/06 02:23:30;;;;;;;5.97;4.15;;;;;;;11.51;74.34;102368.94;4965181;28;20035;-81
2022/07/06 02:25:55;;;;;;;7.28;3.90;;;;;;;11.46;74.68;102368.19;4966907;28;20476;-81
2022/07/06 02:28:20;;;;;;;7.72;4.30;;;;;;;11.41;74.84;102371.00;4966591;28;20027;-81
2022/07/06 02:30:46;;;;;;;7.75;4.50;;;;;;;11.36;75.24;102362.25;4964415;28;20035;-81
2022/07/06 02:33:11;;;;;;;9.07;4.40;;;;;;;11.35;75.11;102371.19;4966324;28;20026;-81
2022/07/06 02:35:41;;;;;;;6.22;4.00;;;;;;;11.29;75.17;102365.16;4966641;28;20033;-80
2022/07/06 02:38:07;;;;;;;5.57;4.10;;;;;;;11.20;75.49;102366.28;4965467;28;20027;-81
2022/07/06 02:40:32;;;;;;;7.85;4.25;;;;;;;11.20;75.75;102371.63;4964966;28;20034;-81
2022/07/06 02:42:57;;;;;;;5.85;4.35;;;;;;;11.11;76.25;102356.78;4965808;28;20266;-81
2022/07/06 02:45:23;;;;;;;7.57;4.90;;;;;;;11.08;76.28;102356.88;4966818;28;20046;-81
2022/07/06 02:47:48;;;;;;;6.65;4.68;;;;;;;11.09;76.69;102363.09;4966000;28;20125;-81
2022/07/06 02:50:13;;;;;;;7.72;5.20;;;;;;;11.12;76.81;102361.22;4967029;28;20519;-81
2022/07/06 02:52:39;;;;;;;7.88;4.90;;;;;;;11.12;76.99;102365.63;4966346;28;20110;-81
2022/07/06 02:55:04;;;;;;;6.75;4.57;;;;;;;11.12;77.27;102368.28;4968176;28;20485;-82
2022/07/06 02:57:30;;;;;;;7.18;4.88;;;;;;;11.07;77.37;102372.91;4977882;28;20079;-82
2022/07/06 02:59:55;;;;;;;8.65;5.40;;;;;;;11.07;77.30;102370.22;4983625;28;20544;-81
2022/07/06 03:02:20;;;;;;;10.70;5.00;;;;;;;11.03;77.40;102364.09;4979785;28;20027;-81
2022/07/06 03:04:45;;;;;;;10.52;5.13;;;;;;;11.04;77.52;102365.00;4975190;28;20083;-81
2022/07/06 03:07:11;;;;;;;7.95;5.13;;;;;;;11.06;77.34;102376.47;4970628;28;20096;-81
2022/07/06 03:09:36;;;;;;;5.88;4.40;;;;;;;11.04;77.63;102370.34;4967642;28;20034;-80
2022/07/06 03:12:02;;;;;;;7.80;4.72;;;;;;;11.04;77.61;102373.00;4971086;28;20392;-81
2022/07/06 03:14:27;;;;;;;8.93;4.90;;;;;;;11.02;77.46;102377.47;4968740;28;20050;-80
2022/07/06 03:16:53;;;;;;;8.70;4.65;;;;;;;11.00;77.77;102371.34;4965605;28;20113;-82
2022/07/06 03:19:19;;;;;;;8.23;5.20;;;;;;;11.00;77.45;102374.00;4968310;28;20026;-81
2022/07/06 03:21:44;;;;;;;7.75;4.90;;;;;;;11.01;77.75;102381.06;4965176;28;20023;-81
2022/07/06 03:24:10;;;;;;;8.35;5.03;;;;;;;10.99;77.79;102378.44;4966741;28;20073;-80
2022/07/06 03:26:35;;;;;;;9.55;4.90;;;;;;;10.96;77.78;102382.06;4968913;28;20495;-80
2022/07/06 03:29:00;;;;;;;8.57;4.95;;;;;;;10.98;77.65;102380.22;4969397;28;20074;-80
2022/07/06 03:31:26;;;;;;;6.43;4.75;;;;;;;10.95;77.79;102383.00;4968719;28;20116;-80
2022/07/06 03:33:52;;;;;;;8.25;4.60;;;;;;;10.91;77.84;102389.31;4970287;28;20042;-81
2022/07/06 03:36:17;;;;;;;7.45;4.80;;;;;;;10.92;78.24;102380.41;4967796;28;20034;-81
2022/07/06 03:38:43;;;;;;;9.85;4.35;;;;;;;10.92;77.76;102377.75;4968417;28;20098;-81
2022/07/06 03:41:08;;;;;;;6.38;4.07;;;;;;;10.92;77.93;102376.88;4971006;28;20524;-81
2022/07/06 03:43:33;;;;;;;7.70;5.10;;;;;;;10.94;77.86;102380.34;4968627;28;20512;-81
2022/07/06 03:45:59;;;;;;;7.25;4.60;;;;;;;10.95;77.83;102377.69;4970021;28;20742;-81
2022/07/06 03:48:24;;;;;;;9.10;4.55;;;;;;;10.97;77.46;102386.47;4969933;28;20122;-81
2022/07/06 03:50:49;;;;;;;6.55;4.60;;;;;;;10.97;77.14;102383.81;4970451;28;20034;-81
2022/07/06 03:53:15;;;;;;;5.60;4.15;;;;;;;10.96;77.22;102386.53;4967415;28;20085;-81
2022/07/06 03:55:40;;;;;;;6.30;4.30;;;;;;;11.00;77.79;102390.88;4969420;28;20018;-81
2022/07/06 03:58:05;;;;;;;6.80;3.90;;;;;;;11.01;77.68;102384.59;4969106;28;20531;-81
2022/07/06 04:00:31;;;;;;;7.25;4.38;;;;;;;11.03;77.71;102379.22;4970225;28;20433;-81
2022/07/06 04:02:56;;;;;;;5.55;4.07;;;;;;;11.04;77.77;102386.31;4967922;28;20531;-81
2022/07/06 04:05:22;;;;;;;7.20;4.50;;;;;;;11.00;77.90;102376.66;4970435;28;20034;-81
2022/07/06 04:07:48;;;;;;;6.72;4.50;;;;;;;11.05;78.03;102388.94;4968171;28;20045;-81
2022/07/06 04:10:15;;;;;;;7.15;3.72;;;;;;;11.09;77.95;102381.72;4970519;28;20476;-81
2022/07/06 04:12:44;;;;;;;7.20;4.30;;;;;;;11.08;78.06;102378.19;4968202;28;20041;-81
2022/07/06 04:15:10;;;;;;;4.47;3.80;;;;;;;11.11;78.21;102379.88;4965699;28;20531;-81
2022/07/06 04:17:54;;;;;;;4.28;3.13;;;;;;;11.11;78.22;102377.22;4964518;28;20034;-81
2022/07/06 04:20:20;;;;;;;9.18;4.38;;;;;;;11.15;78.09;102379.75;4968614;28;20050;-81
2022/07/06 04:22:46;;;;;;;7.30;4.00;;;;;;;11.19;78.26;102377.88;4968644;28;20674;-81
2022/07/06 04:25:11;;;;;;;5.25;4.00;;;;;;;11.20;78.16;102372.53;4970571;28;20031;-81
2022/07/06 04:27:36;;;;;;;5.28;3.80;;;;;;;11.23;78.20;102371.53;4970923;28;20392;-81
2022/07/06 04:30:05;;;;;;;5.93;3.67;;;;;;;11.26;78.28;102371.44;4974632;28;20035;-81
2022/07/06 04:32:31;;;;;;;5.03;3.63;;;;;;;11.28;77.88;102372.28;4972491;28;20027;-81
2022/07/06 04:34:57;;;;;;;6.60;3.63;;;;;;;11.32;77.89;102357.94;4971141;28;20078;-81
2022/07/06 04:37:22;;;;;;;5.88;4.13;;;;;;;11.31;78.31;102364.19;4967832;28;20180;-81
2022/07/06 04:39:47;;;;;;;6.85;4.00;;;;;;;11.36;78.09;102356.06;4969873;28;20034;-80
2022/07/06 04:42:13;;;;;;;5.85;3.90;;;;;;;11.41;78.12;102356.78;4969172;28;20034;-81
2022/07/06 04:44:38;;;;;;;5.43;3.60;;;;;;;11.42;78.13;102359.41;4969781;28;20298;-80
2022/07/06 04:47:03;;;;;;;6.88;4.03;;;;;;;11.52;78.30;102360.00;4968022;28;20109;-80
2022/07/06 04:49:29;;;;;;;6.40;3.97;;;;;;;11.58;78.07;102366.94;4967672;28;20042;-81
2022/07/06 04:51:54;;;;;;;6.38;4.00;;;;;;;11.64;77.60;102358.75;4969164;28;20092;-81
2022/07/06 04:54:20;;;;;;;4.95;3.83;;;;;;;11.76;77.60;102369.03;4971117;28;20131;-81
2022/07/06 04:56:46;;;;;;;4.35;3.65;;;;;;;11.85;77.43;102368.78;4968743;28;20270;-81
2022/07/06 04:59:12;;;;;;;5.72;3.60;;;;;;;11.93;77.10;102366.75;4970878;28;20029;-81
2022/07/06 05:01:37;;;;;;;5.32;3.60;;;;;;;12.01;76.67;102366.50;4967117;28;20030;-80
2022/07/06 05:04:02;;;;;;;5.63;3.70;;;;;;;12.10;76.91;102368.84;4969463;28;20108;-82
2022/07/06 05:06:28;;;;;;;4.95;3.67;;;;;;;12.20;77.00;102372.94;4968274;28;20041;-81
2022/07/06 05:08:53;;;;;;;5.18;3.30;;;;;;;12.30;76.83;102378.00;4968184;28;20023;-84
2022/07/06 05:11:18;;;;;;;5.57;3.53;;;;;;;12.36;75.77;102373.31;4970888;28;20102;-80
2022/07/06 05:13:43;;;;;;;7.13;3.20;;;;;;;12.46;76.30;102384.59;4969503;28;20041;-81
2022/07/06 05:16:09;;;;;;;5.75;3.17;;;;;;;12.54;75.82;102384.28;4969693;28;20023;-81
2022/07/06 05:18:34;;;;;;;7.95;3.60;;;;;;;12.66;75.25;102384.72;4968737;28;20041;-80
2022/07/06 05:20:59;;;;;;;7.47;3.25;;;;;;;12.78;75.37;102390.56;4970861;28;20034;-80
2022/07/06 05:23:25;;;;;;;4.88;3.63;;;;;;;12.89;74.49;102383.06;4968767;28;20031;-81
2022/07/06 05:25:50;;;;;;;5.03;3.45;;;;;;;13.00;74.39;102375.53;4968847;28;20516;-77
2022/07/06 05:28:16;;;;;;;6.95;3.53;;;;;;;13.13;73.38;102370.59;4969378;28;20039;-82
2022/07/06 05:30:41;;;;;;;6.25;3.22;;;;;;;13.29;73.27;102382.47;4970257;28;20031;-82
2022/07/06 05:33:06;;;;;;;5.38;3.00;;;;;;;13.46;72.89;102389.91;4967815;28;20023;-81
2022/07/06 05:35:32;;;;;;;5.30;3.00;;;;;;;13.55;72.56;102384.19;4967522;28;20053;-81
2022/07/06 05:37:57;;;;;;;6.55;3.17;;;;;;;13.67;71.56;102388.19;4967900;28;20031;-81
2022/07/06 05:40:22;;;;;;;6.88;3.00;;;;;;;13.72;70.68;102391.53;4965505;28;20019;-81
2022/07/06 05:42:48;;;;;;;3.65;3.00;;;;;;;13.83;70.83;102400.00;4970093;28;20086;-81
2022/07/06 05:45:14;;;;;;;4.25;2.65;;;;;;;13.92;70.18;102399.66;4971868;28;20046;-80
2022/07/06 05:50:30;;;;;;;5.10;2.92;;;;;;;14.20;69.02;102393.16;4989283;28;20153;-80
2022/07/06 05:52:58;;;;;;;3.13;2.33;;;;;;;14.24;68.49;102399.25;4972799;28;20030;-80
2022/07/06 05:55:23;;;;;;;3.08;2.30;;;;;;;14.27;68.30;102394.66;4966633;28;20035;-80
2022/07/06 05:57:50;;;;;;;3.22;1.98;;;;;;;14.37;67.58;102396.00;4974847;28;20098;-80
2022/07/06 06:00:16;;;;;;;5.22;2.50;;;;;;;14.53;67.34;102406.13;4969527;28;20062;-80
2022/07/06 06:02:42;;;;;;;5.70;2.22;;;;;;;14.68;66.36;102402.78;4972606;28;20062;-80
2022/07/06 06:05:09;;;;;;;5.28;2.10;;;;;;;14.83;66.93;102402.09;4974962;28;20037;-80
2022/07/06 06:07:35;;;;;;;2.65;1.85;;;;;;;15.14;65.37;102414.16;4970647;28;20497;-79
2022/07/06 06:10:05;;;;;;;4.65;1.90;;;;;;;15.33;63.97;102419.53;4977269;28;20026;-80
2022/07/06 06:12:30;;;;;;;4.35;2.00;;;;;;;15.71;63.91;102409.72;4985057;28;20038;-80
2022/07/06 06:14:55;;;;;;;3.83;1.83;;;;;;;15.97;61.79;102411.19;4980402;28;20122;-78
2022/07/06 06:17:21;;;;;;;3.78;1.40;;;;;;;16.24;61.14;102406.25;4976845;28;20023;-79
2022/07/06 06:19:46;;;;;;;5.85;1.73;;;;;;;16.36;60.59;102407.47;4968414;28;20447;-78
2022/07/06 06:22:11;;;;;;;3.03;1.50;;;;;;;16.50;60.27;102409.44;4975481;28;20054;-80
2022/07/06 06:24:36;;;;;;;2.63;1.40;;;;;;;16.59;59.32;102401.78;4969104;28;20030;-79
2022/07/06 06:27:02;;;;;;;3.03;1.60;;;;;;;16.76;58.87;102406.34;4971775;28;20030;-79
2022/07/06 06:29:27;;;;;;;3.92;1.40;;;;;;;16.93;57.96;102403.63;4967689;28;20141;-79
2022/07/06 06:31:53;;;;;;;1.83;1.20;;;;;;;16.89;58.59;102401.19;4972717;28;20022;-79
2022/07/06 06:34:18;;;;;;;3.35;1.58;;;;;;;16.91;57.56;102404.66;4959704;28;20113;-81
2022/07/06 06:36:43;;;;;;;3.00;1.20;;;;;;;16.87;58.48;102408.44;4963880;28;20049;-79
2022/07/06 06:39:09;;;;;;;4.15;1.30;;;;;;;16.77;56.49;102400.00;4969510;28;20126;-80
2022/07/06 06:41:34;;;;;;;2.28;1.00;;;;;;;16.73;57.09;102411.88;4967959;28;20117;-81
2022/07/06 06:43:59;;;;;;;1.42;1.10;;;;;;;16.59;56.21;102401.78;4969529;28;20031;-81
2022/07/06 06:46:25;;;;;;;2.25;1.20;;;;;;;16.54;57.35;102408.34;4963255;28;20030;-80
2022/07/06 06:48:50;;;;;;;1.63;1.00;;;;;;;16.34;57.98;102420.97;4971460;28;20038;-81
2022/07/06 06:51:15;;;;;;;2.10;1.30;;;;;;;16.17;57.51;102418.25;4965665;28;20477;-78
2022/07/06 06:53:40;;;;;;;3.83;1.30;;;;;;;16.03;57.50;102420.75;4973514;28;20084;-78
2022/07/06 06:56:06;;;;;;;2.33;1.15;;;;;;;15.97;58.71;102407.59;4971453;28;20031;-77
2022/07/06 06:58:32;;;;;;;5.68;3.25;;;;;;;16.04;57.74;102422.47;4969772;28;20034;-80
2022/07/06 07:00:57;;;;;;;5.55;3.17;;;;;;;16.06;57.57;102409.88;4974829;28;20484;-80
2022/07/06 07:03:22;;;;;;;79.22;6.57;;;;;;;16.05;58.95;102417.06;4974968;28;20066;-77
2022/07/06 07:05:48;;;;;;;42.03;4.40;;;;;;;16.06;58.56;102416.09;4971616;28;20022;-77
2022/07/06 07:08:14;;;;;;;5.30;1.35;;;;;;;16.06;58.98;102423.28;4977617;28;20034;-78
2022/07/06 07:10:39;;;;;;;2.80;1.10;;;;;;;16.04;58.71;102414.44;4976069;28;20031;-77
2022/07/06 07:13:04;;;;;;;4.25;1.20;;;;;;;16.00;59.67;102421.75;4973596;28;20225;-79
2022/07/06 07:15:30;;;;;;;2.08;1.30;;;;;;;15.98;59.72;102422.78;4971829;28;20117;-79
2022/07/06 07:17:55;;;;;;;2.08;1.40;;;;;;;16.03;60.46;102420.75;4971979;28;20129;-80
2022/07/06 07:20:20;;;;;;;9.13;5.45;;;;;;;16.04;59.87;102434.09;4976232;28;20039;-80
2022/07/06 07:22:46;;;;;;;6.88;3.20;;;;;;;16.04;60.25;102422.47;4974904;28;20034;-80
2022/07/06 07:25:11;;;;;;;3.55;1.90;;;;;;;16.30;59.29;102424.78;4972899;28;20129;-81
2022/07/06 07:27:36;;;;;;;2.15;1.10;;;;;;;16.85;59.32;102424.69;4973245;28;20030;-80
2022/07/06 07:30:02;;;;;;;4.63;1.40;;;;;;;17.39;56.17;102425.38;4972907;28;20042;-81
2022/07/06 07:32:28;;;;;;;5.55;1.40;;;;;;;18.00;55.17;102425.63;4974229;28;20226;-81
2022/07/06 07:34:53;;;;;;;2.25;1.05;;;;;;;18.50;53.31;102429.91;4975352;28;20307;-81
2022/07/06 07:37:18;;;;;;;3.53;0.90;;;;;;;18.92;50.91;102423.78;4977325;28;20031;-81
2022/07/06 07:39:44;;;;;;;2.25;0.80;;;;;;;19.15;49.10;102431.34;4971774;28;20109;-81
2022/07/06 07:42:09;;;;;;;1.85;0.65;;;;;;;19.39;46.27;102420.81;4976577;28;20025;-81
2022/07/06 07:44:34;;;;;;;1.02;0.70;;;;;;;19.82;45.50;102420.84;4973815;28;20054;-81
2022/07/06 07:46:59;;;;;;;2.33;0.73;;;;;;;20.52;45.14;102420.69;4976007;28;20023;-80
2022/07/06 07:49:25;;;;;;;1.77;1.10;;;;;;;21.09;44.05;102420.34;4974822;28;20515;-81
2022/07/06 07:51:50;;;;;;;1.02;0.77;;;;;;;21.70;41.70;102425.09;4971513;28;20055;-82
2022/07/06 07:54:16;;;;;;;1.92;0.75;;;;;;;22.13;38.93;102415.53;4971011;28;20109;-82
2022/07/06 07:56:41;;;;;;;2.35;0.50;;;;;;;22.57;37.38;102416.75;4976551;28;20046;-81
2022/07/06 07:59:07;;;;;;;2.67;0.70;;;;;;;22.94;36.97;102422.03;4972885;28;20031;-81
2022/07/06 08:01:33;;;;;;;3.08;0.60;;;;;;;22.78;36.73;102414.22;4980085;28;20061;-82
2022/07/06 08:03:58;;;;;;;1.40;0.50;;;;;;;23.07;36.70;102414.69;4976365;28;20044;-81
2022/07/06 08:06:25;;;;;;;1.25;0.70;;;;;;;23.36;35.92;102414.19;4972052;28;20034;-82
2022/07/06 08:08:50;;;;;;;2.50;1.40;;;;;;;23.61;35.22;102403.03;4972599;28;20035;-82
2022/07/06 08:11:16;;;;;;;1.00;0.70;;;;;;;23.87;34.26;102405.53;4973816;28;20033;-83
2022/07/06 08:13:41;;;;;;;0.60;0.50;;;;;;;23.84;33.37;102408.50;4973047;28;20014;-82
2022/07/06 08:16:06;;;;;;;1.50;0.90;;;;;;;24.14;33.35;102409.66;4972490;28;20077;-82
2022/07/06 08:18:32;;;;;;;1.33;0.75;;;;;;;24.50;33.14;102408.44;4973862;28;20277;-82
2022/07/06 08:20:57;;;;;;;0.50;0.50;;;;;;;24.89;33.24;102412.31;4972438;28;20473;-82
2022/07/06 08:23:23;;;;;;;2.50;0.82;;;;;;;25.45;32.10;102400.13;4973328;28;20049;-82
2022/07/06 08:25:49;;;;;;;0.95;0.60;;;;;;;25.81;31.08;102393.25;4969885;28;20105;-82
2022/07/06 08:28:14;;;;;;;1.25;0.60;;;;;;;25.84;30.44;102398.44;4973429;28;20393;-82
2022/07/06 08:30:39;;;;;;;1.17;0.57;;;;;;;26.16;30.30;102400.91;4973175;28;20035;-82
2022/07/06 08:33:04;;;;;;;0.73;0.52;;;;;;;26.25;30.02;102404.63;4971695;28;20023;-82
2022/07/06 08:35:30;;;;;;;2.38;0.60;;;;;;;26.33;30.83;102400.22;4970026;28;20022;-82
2022/07/06 08:37:56;;;;;;;6.03;0.90;;;;;;;26.43;30.66;102394.75;4971098;28;20372;-82
2022/07/06 08:40:21;;;;;;;2.35;0.80;;;;;;;26.70;30.19;102399.47;4972687;28;20050;-82
2022/07/06 08:42:49;;;;;;;1.27;0.60;;;;;;;26.66;30.07;102400.78;4970999;28;20061;-82
2022/07/06 08:45:16;;;;;;;1.33;0.60;;;;;;;26.64;29.12;102401.97;4969686;28;20030;-82
2022/07/06 08:47:42;;;;;;;3.72;0.57;;;;;;;27.21;29.35;102406.47;4970355;28;20033;-82
2022/07/06 08:50:08;;;;;;;1.85;0.50;;;;;;;28.01;28.31;102406.78;4970854;28;20019;-82
2022/07/06 08:52:34;;;;;;;1.52;0.80;;;;;;;28.69;28.28;102398.03;4970919;28;20019;-82
2022/07/06 08:55:00;;;;;;;2.08;0.70;;;;;;;28.86;27.05;102397.13;4983893;28;20481;-82
2022/07/06 08:57:27;;;;;;;1.42;0.50;;;;;;;27.67;27.93;102396.44;4970820;28;20034;-82
2022/07/06 08:59:52;;;;;;;1.85;0.70;;;;;;;27.48;27.81;102386.47;4969517;28;20465;-82
2022/07/06 09:02:18;;;;;;;1.10;0.60;;;;;;;27.22;28.85;102388.19;4971029;28;20184;-82
2022/07/06 09:04:46;;;;;;;1.88;0.60;;;;;;;26.35;29.70;102385.56;4968492;28;20035;-82
2022/07/06 09:07:11;;;;;;;2.55;0.50;;;;;;;24.96;31.76;102396.31;4969286;28;20035;-82
2022/07/06 09:09:38;;;;;;;1.35;0.68;;;;;;;24.88;32.50;102394.25;4969608;28;20027;-82
2022/07/06 09:12:07;;;;;;;1.65;0.60;;;;;;;24.96;32.43;102394.44;4985721;28;20099;-81
2022/07/06 09:14:33;;;;;;;1.58;0.73;;;;;;;25.29;31.47;102381.56;4969344;28;20097;-82
2022/07/06 09:17:04;;;;;;;1.70;0.60;;;;;;;25.42;31.62;102392.25;4970575;28;20436;-82
2022/07/06 09:19:34;;;;;;;3.58;1.70;;;;;;;24.84;32.64;102390.91;4970237;28;20031;-82
2022/07/06 09:22:01;;;;;;;2.00;0.90;;;;;;;24.45;33.37;102389.75;4968395;28;20030;-81
2022/07/06 09:24:27;;;;;;;3.67;2.45;;;;;;;25.03;32.68;102400.19;4968018;28;20528;-81
2022/07/06 09:26:57;;;;;;;2.05;0.95;;;;;;;26.41;30.82;102388.56;4970162;28;20081;-82
2022/07/06 09:29:30;;;;;;;1.63;0.68;;;;;;;27.49;28.63;102395.53;4972499;28;20042;-82
2022/07/06 09:31:59;;;;;;;1.70;0.73;;;;;;;28.07;27.35;102392.47;4975829;28;20433;-82
2022/07/06 09:34:26;;;;;;;1.52;0.47;;;;;;;28.85;26.31;102394.56;4973740;28;20479;-82
2022/07/06 09:36:52;;;;;;;1.67;0.60;;;;;;;29.68;24.37;102395.72;4973566;28;20093;-82
2022/07/06 09:39:28;;;;;;;1.85;0.77;;;;;;;30.61;25.58;102391.94;4971771;28;20489;-81
2022/07/06 09:41:59;;;;;;;2.03;0.73;;;;;;;31.03;23.65;102386.25;4971695;28;20046;-82
2022/07/06 09:44:29;;;;;;;1.15;0.60;;;;;;;31.22;23.70;102401.47;4970064;28;20026;-82
2022/07/06 09:46:57;;;;;;;1.05;0.60;;;;;;;31.29;22.86;102401.66;4970754;28;20026;-82
2022/07/06 09:49:23;;;;;;;2.40;0.70;;;;;;;30.95;24.02;102408.25;4969773;28;20030;-82
2022/07/06 09:51:54;;;;;;;5.10;3.17;;;;;;;29.97;24.58;102395.31;4969834;28;20058;-82
2022/07/06 09:54:20;;;;;;;6.28;3.50;;;;;;;28.51;26.32;102411.75;4966806;28;20093;-82
2022/07/06 09:56:50;;;;;;;2.40;0.70;;;;;;;27.21;26.18;102403.72;4969710;28;20066;-82
2022/07/06 09:59:17;;;;;;;1.38;0.57;;;;;;;25.88;27.28;102407.22;4969108;28;20019;-82
2022/07/06 10:01:42;;;;;;;1.88;0.60;;;;;;;25.24;28.25;102413.81;4983509;28;20126;-82
2022/07/06 10:04:09;;;;;;;2.15;1.27;;;;;;;24.89;29.96;102414.16;4969117;28;20154;-82
2022/07/06 10:06:36;;;;;;;1.77;1.00;;;;;;;24.72;30.54;102412.91;4969845;28;20026;-82
2022/07/06 10:09:04;;;;;;;2.88;1.15;;;;;;;25.12;31.73;102413.03;4969609;28;20027;-82
2022/07/06 10:11:36;;;;;;;2.97;0.70;;;;;;;25.22;31.59;102404.94;4970114;28;20042;-82
2022/07/06 10:14:05;;;;;;;2.20;0.80;;;;;;;24.89;31.80;102412.31;4984090;28;20385;-82
2022/07/06 10:16:30;;;;;;;1.75;0.73;;;;;;;24.52;31.96;102409.16;4998820;28;20022;-81
2022/07/06 10:18:57;;;;;;;1.00;0.52;;;;;;;24.58;32.71;102411.38;4993196;28;20495;-82
2022/07/06 10:21:22;;;;;;;3.53;0.75;;;;;;;24.76;32.19;102417.94;4985061;28;20030;-81
2022/07/06 10:23:49;;;;;;;2.75;0.80;;;;;;;24.70;32.32;102415.75;4976447;28;20501;-82
2022/07/06 10:26:16;;;;;;;2.70;0.90;;;;;;;24.43;31.96;102415.41;4970291;28;20035;-82
2022/07/06 10:28:42;;;;;;;3.50;2.15;;;;;;;24.41;32.39;102411.94;4969949;28;20037;-82
2022/07/06 10:31:09;;;;;;;4.97;2.08;;;;;;;24.10;33.19;102407.19;4970344;28;20556;-81
2022/07/06 10:33:36;;;;;;;2.10;0.90;;;;;;;23.95;33.79;102405.75;4970015;28;20101;-81
2022/07/06 10:36:02;;;;;;;1.35;0.70;;;;;;;23.75;34.01;102411.97;4985071;28;20057;-81
2022/07/06 10:38:32;;;;;;;2.00;0.70;;;;;;;23.51;34.44;102407.53;4989165;28;20092;-81
2022/07/06 10:41:06;;;;;;;17.13;1.55;;;;;;;23.40;34.02;102407.50;4989676;28;20064;-82
2022/07/06 10:43:42;;;;;;;7.55;0.88;;;;;;;23.16;34.80;102406.75;4980892;28;20094;-82
2022/07/06 10:46:11;;;;;;;9.00;2.00;;;;;;;23.17;34.57;102405.78;4986811;28;20050;-82
2022/07/06 10:48:38;;;;;;;4.63;0.82;;;;;;;23.05;34.46;102407.63;4971799;28;20137;-82
2022/07/06 10:51:05;;;;;;;5.05;0.77;;;;;;;23.27;34.18;102402.19;4971571;28;20064;-81
2022/07/06 10:53:37;;;;;;;2.58;0.70;;;;;;;23.53;32.90;102400.09;4969949;28;20065;-81
2022/07/06 10:56:05;;;;;;;11.70;1.38;;;;;;;23.80;32.35;102393.44;4969571;28;20477;-82
2022/07/06 10:58:34;;;;;;;2.67;0.80;;;;;;;23.94;33.16;102393.13;4968319;28;20592;-78
2022/07/06 11:01:00;;;;;;;3.15;1.70;;;;;;;23.89;33.55;102405.41;4969398;28;20086;-78
2022/07/06 11:03:41;;;;;;;4.18;2.50;;;;;;;23.83;33.51;102409.50;4967186;28;20345;-81
2022/07/06 11:06:21;;;;;;;4.68;1.30;;;;;;;23.92;34.01;102395.13;4969272;28;20055;-82
2022/07/06 11:08:51;;;;;;;2.90;1.60;;;;;;;24.00;33.46;102389.06;4968883;28;20051;-79
2022/07/06 11:11:16;;;;;;;2.55;0.80;;;;;;;24.20;32.80;102409.13;4968349;28;20507;-81
2022/07/06 11:14:04;;;;;;;2.67;0.93;;;;;;;24.58;31.96;102401.34;4967031;28;20031;-82
2022/07/06 11:16:34;;;;;;;2.15;0.60;;;;;;;24.99;30.93;102404.19;4977101;28;20027;-81
2022/07/06 11:19:01;;;;;;;2.03;0.60;;;;;;;25.44;30.18;102401.13;4965870;28;20093;-81
2022/07/06 11:21:57;;;;;;;1.70;0.77;;;;;;;26.13;29.76;102394.91;4965568;28;20023;-83
2022/07/06 11:24:25;;;;;;;1.42;0.60;;;;;;;26.87;28.92;102392.41;4975420;28;20034;-82